createdAt,value
2017-09-12T00:01:06.318Z,0
2017-09-12T00:03:07.909Z,0
2017-09-12T00:05:09.324Z,0
2017-09-12T00:07:10.749Z,0
2017-09-12T00:09:12.164Z,0
2017-09-12T00:11:13.592Z,0
2017-09-12T00:13:15.008Z,0
2017-09-12T00:15:16.426Z,0
2017-09-12T00:17:17.857Z,0
2017-09-12T00:19:19.252Z,0
2017-09-12T00:21:20.671Z,0
2017-09-12T00:24:03.084Z,0
2017-09-12T00:26:04.499Z,0
2017-09-12T00:28:05.914Z,0
2017-09-12T00:30:07.815Z,0
2017-09-12T00:32:09.403Z,0
2017-09-12T00:34:10.799Z,0
2017-09-12T00:36:12.214Z,0
2017-09-12T00:38:13.627Z,0
2017-09-12T00:40:15.048Z,0
2017-09-12T00:42:16.505Z,0
2017-09-12T00:44:17.952Z,0
2017-09-12T00:46:19.455Z,0
2017-09-12T00:48:20.846Z,0
2017-09-12T00:50:22.349Z,0
2017-09-12T00:52:23.844Z,0
2017-09-12T00:54:25.271Z,0
2017-09-12T00:56:26.829Z,0
2017-09-12T00:58:28.304Z,0
2017-09-12T01:00:29.803Z,0
2017-09-12T01:02:31.276Z,0
2017-09-12T01:04:32.842Z,0
2017-09-12T01:06:34.286Z,0
2017-09-12T01:08:35.763Z,0
2017-09-12T01:10:37.259Z,0
2017-09-12T01:12:38.784Z,0
2017-09-12T01:14:40.261Z,0
2017-09-12T01:16:41.806Z,0
2017-09-12T01:18:43.388Z,0
2017-09-12T01:20:44.841Z,0
2017-09-12T01:22:46.348Z,0
2017-09-12T01:24:47.821Z,0
2017-09-12T01:27:30.217Z,0
2017-09-12T01:29:31.706Z,0
2017-09-12T01:31:33.087Z,0
2017-09-12T01:33:34.612Z,0
2017-09-12T01:35:36.010Z,0
2017-09-12T01:37:37.439Z,0
2017-09-12T01:39:38.851Z,0
2017-09-12T01:41:40.303Z,0
2017-09-12T01:43:41.729Z,0
2017-09-12T01:45:43.142Z,0
2017-09-12T01:47:44.561Z,0
2017-09-12T01:49:46.010Z,0
2017-09-12T01:51:47.419Z,0
2017-09-12T01:53:48.844Z,0
2017-09-12T01:55:50.295Z,0
2017-09-12T01:58:33.588Z,0
2017-09-12T02:00:35.010Z,0
2017-09-12T02:02:36.644Z,0
2017-09-12T02:04:38.050Z,0
2017-09-12T02:06:39.457Z,0
2017-09-12T02:08:40.874Z,0
2017-09-12T02:10:42.297Z,0
2017-09-12T02:12:43.768Z,0
2017-09-12T02:15:26.157Z,0
2017-09-12T02:17:27.577Z,0
2017-09-12T02:19:28.990Z,0
2017-09-12T02:21:30.406Z,0
2017-09-12T02:23:32.057Z,0
2017-09-12T02:25:34.113Z,0
2017-09-12T02:27:35.823Z,0
2017-09-12T02:29:37.257Z,0
2017-09-12T02:31:38.669Z,0
2017-09-12T02:33:40.086Z,0
2017-09-12T02:35:41.504Z,0
2017-09-12T02:37:42.942Z,0
2017-09-12T02:39:44.719Z,0
2017-09-12T02:41:46.192Z,0
2017-09-12T02:43:47.738Z,0
2017-09-12T02:45:49.338Z,0
2017-09-12T02:47:50.854Z,0
2017-09-12T02:49:52.421Z,0
2017-09-12T02:51:53.863Z,0
2017-09-12T02:53:55.307Z,0
2017-09-12T02:55:56.853Z,0
2017-09-12T02:57:58.300Z,0
2017-09-12T02:59:59.767Z,0
2017-09-12T03:02:01.247Z,0
2017-09-12T03:04:02.714Z,0
2017-09-12T03:06:04.204Z,0
2017-09-12T03:08:05.749Z,0
2017-09-12T03:10:07.222Z,0
2017-09-12T03:12:08.721Z,0
2017-09-12T03:14:10.309Z,0
2017-09-12T03:16:11.733Z,0
2017-09-12T03:18:13.207Z,0
2017-09-12T03:20:14.712Z,0
2017-09-12T03:22:16.210Z,0
2017-09-12T03:24:17.740Z,0
2017-09-12T03:26:19.227Z,0
2017-09-12T03:28:20.712Z,0
2017-09-12T03:30:22.144Z,0
2017-09-12T03:32:23.569Z,0
2017-09-12T03:34:24.993Z,0
2017-09-12T03:36:26.422Z,0
2017-09-12T03:38:27.853Z,0
2017-09-12T03:40:29.266Z,0
2017-09-12T03:42:30.687Z,0
2017-09-12T03:44:32.118Z,0
2017-09-12T03:46:33.544Z,0
2017-09-12T03:48:35.253Z,0
2017-09-12T03:50:36.656Z,0
2017-09-12T03:52:38.083Z,0
2017-09-12T03:54:39.499Z,0
2017-09-12T03:56:40.978Z,0
2017-09-12T03:58:42.554Z,0
2017-09-12T04:00:44.103Z,0
2017-09-12T04:02:45.567Z,0
2017-09-12T04:04:47.074Z,0
2017-09-12T04:06:48.498Z,0
2017-09-12T04:08:49.912Z,0
2017-09-12T04:10:51.330Z,0
2017-09-12T04:12:52.739Z,0
2017-09-12T04:14:54.159Z,0
2017-09-12T04:16:55.573Z,0
2017-09-12T04:18:57.033Z,0
2017-09-12T04:20:58.564Z,0
2017-09-12T04:23:00.047Z,0
2017-09-12T04:25:01.520Z,0
2017-09-12T04:27:03.089Z,0
2017-09-12T04:29:04.549Z,0
2017-09-12T04:31:06.029Z,0
2017-09-12T04:33:07.595Z,0
2017-09-12T04:35:09.014Z,0
2017-09-12T04:37:51.415Z,0
2017-09-12T04:39:52.831Z,0
2017-09-12T04:41:54.250Z,4
2017-09-12T04:43:55.668Z,0
2017-09-12T04:45:57.083Z,0
2017-09-12T04:47:58.608Z,4
2017-09-12T04:50:00.162Z,4
2017-09-12T04:52:01.496Z,4
2017-09-12T04:54:02.935Z,4
2017-09-12T04:56:04.337Z,4
2017-09-12T04:58:05.815Z,8
2017-09-12T05:00:07.268Z,8
2017-09-12T05:02:08.803Z,12
2017-09-12T05:04:10.350Z,12
2017-09-12T05:06:11.925Z,20
2017-09-12T05:08:13.344Z,16
2017-09-12T05:10:14.765Z,20
2017-09-12T05:12:16.173Z,24
2017-09-12T05:14:17.601Z,20
2017-09-12T05:16:19.016Z,16
2017-09-12T05:18:20.435Z,12
2017-09-12T05:20:21.853Z,16
2017-09-12T05:22:23.283Z,20
2017-09-12T05:25:05.688Z,28
2017-09-12T05:27:07.653Z,40
2017-09-12T05:29:09.089Z,44
2017-09-12T05:31:10.504Z,44
2017-09-12T05:33:11.920Z,44
2017-09-12T05:35:13.347Z,48
2017-09-12T05:37:14.778Z,44
2017-09-12T05:39:16.190Z,44
2017-09-12T05:41:17.608Z,48
2017-09-12T05:43:19.020Z,44
2017-09-12T05:45:20.440Z,44
2017-09-12T05:47:21.880Z,64
2017-09-12T05:49:23.293Z,72
2017-09-12T05:51:24.732Z,88
2017-09-12T05:53:26.151Z,92
2017-09-12T05:55:27.567Z,116
2017-09-12T05:57:28.987Z,124
2017-09-12T05:59:30.414Z,124
2017-09-12T06:01:31.910Z,172
2017-09-12T06:03:33.317Z,272
2017-09-12T06:05:34.908Z,148
2017-09-12T06:07:36.371Z,180
2017-09-12T06:09:37.794Z,128
2017-09-12T06:12:20.811Z,272
2017-09-12T06:14:22.250Z,388
2017-09-12T06:16:23.681Z,336
2017-09-12T06:18:25.099Z,240
2017-09-12T06:20:26.521Z,232
2017-09-12T06:22:27.949Z,432
2017-09-12T06:24:29.385Z,628
2017-09-12T06:26:30.808Z,720
2017-09-12T06:28:32.285Z,1028
2017-09-12T06:30:33.700Z,1296
2017-09-12T06:32:35.125Z,1108
2017-09-12T06:34:36.618Z,1432
2017-09-12T06:36:38.057Z,1180
2017-09-12T06:38:39.479Z,1296
2017-09-12T06:40:40.911Z,940
2017-09-12T06:42:42.384Z,1248
2017-09-12T06:44:43.861Z,668
2017-09-12T06:46:45.339Z,532
2017-09-12T06:48:46.813Z,484
2017-09-12T06:50:48.231Z,516
2017-09-12T06:52:49.764Z,508
2017-09-12T06:54:51.247Z,516
2017-09-12T06:56:52.670Z,896
2017-09-12T06:59:35.069Z,548
2017-09-12T07:01:36.488Z,464
2017-09-12T07:03:38.037Z,616
2017-09-12T07:05:39.489Z,576
2017-09-12T07:07:40.977Z,484
2017-09-12T07:09:42.394Z,572
2017-09-12T07:11:43.818Z,624
2017-09-12T07:13:45.231Z,628
2017-09-12T07:15:46.653Z,492
2017-09-12T07:17:48.082Z,1344
2017-09-12T07:19:49.498Z,1264
2017-09-12T07:21:50.917Z,3676
2017-09-12T07:23:52.340Z,1536
2017-09-12T07:25:53.759Z,2144
2017-09-12T07:27:55.185Z,828
2017-09-12T07:29:56.603Z,664
2017-09-12T07:31:58.025Z,1692
2017-09-12T07:33:59.440Z,1004
2017-09-12T07:36:00.861Z,2736
2017-09-12T07:38:02.288Z,1348
2017-09-12T07:40:03.712Z,1960
2017-09-12T07:42:05.194Z,4352
2017-09-12T07:44:06.862Z,2020
2017-09-12T07:46:49.314Z,1236
2017-09-12T07:48:50.739Z,1460
2017-09-12T07:50:52.154Z,2344
2017-09-12T07:52:53.572Z,2008
2017-09-12T07:54:54.985Z,7340
2017-09-12T07:56:56.816Z,2820
2017-09-12T07:58:58.523Z,3852
2017-09-12T08:00:59.956Z,3692
2017-09-12T08:03:01.386Z,3852
2017-09-12T08:05:02.805Z,3328
2017-09-12T08:07:04.240Z,3708
2017-09-12T08:09:05.662Z,4052
2017-09-12T08:11:07.083Z,3720
2017-09-12T08:13:08.508Z,1912
2017-09-12T08:15:09.937Z,2432
2017-09-12T08:17:11.350Z,1936
2017-09-12T08:19:12.831Z,2176
2017-09-12T08:21:14.283Z,2080
2017-09-12T08:23:15.752Z,3980
2017-09-12T08:25:17.196Z,3852
2017-09-12T08:27:18.665Z,2592
2017-09-12T08:29:20.106Z,3920
2017-09-12T08:31:21.535Z,3752
2017-09-12T08:33:22.962Z,3844
2017-09-12T08:36:05.547Z,2148
2017-09-12T08:38:06.961Z,3724
2017-09-12T08:40:08.384Z,2196
2017-09-12T08:42:09.814Z,3200
2017-09-12T08:44:11.249Z,1592
2017-09-12T08:46:12.675Z,1352
2017-09-12T08:48:14.103Z,3280
2017-09-12T08:50:15.528Z,1628
2017-09-12T08:52:16.942Z,2168
2017-09-12T08:54:18.369Z,2916
2017-09-12T08:56:19.789Z,2292
2017-09-12T08:58:21.213Z,2516
2017-09-12T09:00:22.632Z,1288
2017-09-12T09:02:24.072Z,2408
2017-09-12T09:04:25.505Z,2600
2017-09-12T09:07:08.139Z,2432
2017-09-12T09:09:09.527Z,1376
2017-09-12T09:11:11.245Z,1140
2017-09-12T09:13:12.664Z,968
2017-09-12T09:15:14.085Z,1116
2017-09-12T09:17:15.542Z,924
2017-09-12T09:19:16.969Z,1132
2017-09-12T09:21:18.394Z,1168
2017-09-12T09:23:19.828Z,1068
2017-09-12T09:25:21.267Z,1380
2017-09-12T09:27:22.683Z,2196
2017-09-12T09:29:24.151Z,1304
2017-09-12T09:31:25.574Z,1308
2017-09-12T09:33:27.000Z,1780
2017-09-12T09:35:28.421Z,1460
2017-09-12T09:37:29.856Z,2116
2017-09-12T09:39:31.282Z,1360
2017-09-12T09:41:32.759Z,2180
2017-09-12T09:43:34.233Z,1388
2017-09-12T09:45:35.700Z,1412
2017-09-12T09:47:37.218Z,992
2017-09-12T09:49:38.668Z,2516
2017-09-12T09:51:40.082Z,912
2017-09-12T09:53:41.582Z,840
2017-09-12T09:55:43.002Z,692
2017-09-12T09:57:44.478Z,744
2017-09-12T09:59:45.885Z,1016
2017-09-12T10:01:47.307Z,972
2017-09-12T10:03:48.733Z,852
2017-09-12T10:05:50.179Z,496
2017-09-12T10:07:51.598Z,332
2017-09-12T10:09:53.078Z,452
2017-09-12T10:11:54.630Z,3912
2017-09-12T10:13:56.150Z,3392
2017-09-12T10:15:57.695Z,1244
2017-09-12T10:17:59.216Z,2860
2017-09-12T10:20:00.690Z,4540
2017-09-12T10:22:02.170Z,3224
2017-09-12T10:24:03.659Z,1488
2017-09-12T10:26:05.091Z,1140
2017-09-12T10:28:06.511Z,1280
2017-09-12T10:30:07.934Z,1132
2017-09-12T10:32:09.357Z,1100
2017-09-12T10:34:10.808Z,4028
2017-09-12T10:36:12.319Z,4136
2017-09-12T10:38:13.837Z,3896
2017-09-12T10:40:15.267Z,880
2017-09-12T10:42:57.669Z,676
2017-09-12T10:44:59.090Z,980
2017-09-12T10:47:00.517Z,1500
2017-09-12T10:49:01.988Z,868
2017-09-12T10:51:03.758Z,640
2017-09-12T10:53:05.412Z,3588
2017-09-12T10:55:06.852Z,1496
2017-09-12T10:57:49.268Z,1016
2017-09-12T10:59:50.687Z,800
2017-09-12T11:01:52.112Z,976
2017-09-12T11:03:53.536Z,3512
2017-09-12T11:05:54.958Z,1080
2017-09-12T11:07:56.384Z,3380
2017-09-12T11:09:57.810Z,1376
2017-09-12T11:11:59.237Z,1004
2017-09-12T11:14:00.711Z,756
2017-09-12T11:16:02.228Z,2080
2017-09-12T11:18:03.710Z,1184
2017-09-12T11:20:05.130Z,1044
2017-09-12T11:22:06.608Z,932
2017-09-12T11:24:08.123Z,1176
2017-09-12T11:26:09.612Z,3076
2017-09-12T11:28:11.128Z,2808
2017-09-12T11:30:12.580Z,1304
2017-09-12T11:32:14.029Z,1080
2017-09-12T11:34:15.456Z,740
2017-09-12T11:36:16.872Z,604
2017-09-12T11:38:18.417Z,400
2017-09-12T11:40:19.833Z,272
2017-09-12T11:42:21.264Z,376
2017-09-12T11:44:22.701Z,688
2017-09-12T11:46:24.120Z,1120
2017-09-12T11:48:25.571Z,1024
2017-09-12T11:50:26.994Z,1468
2017-09-12T11:52:28.417Z,744
2017-09-12T11:54:29.843Z,512
2017-09-12T11:56:31.266Z,592
2017-09-12T11:58:32.689Z,936
2017-09-12T12:00:34.121Z,1240
2017-09-12T12:02:35.549Z,1360
2017-09-12T12:04:37.005Z,984
2017-09-12T12:06:38.561Z,744
2017-09-12T12:08:40.035Z,488
2017-09-12T12:10:41.613Z,540
2017-09-12T12:12:43.085Z,980
2017-09-12T12:14:44.573Z,2208
2017-09-12T12:17:28.762Z,1340
2017-09-12T12:19:30.187Z,984
2017-09-12T12:21:31.606Z,856
2017-09-12T12:23:33.080Z,604
2017-09-12T12:25:34.565Z,596
2017-09-12T12:27:36.053Z,408
2017-09-12T12:29:37.885Z,460
2017-09-12T12:31:39.760Z,404
2017-09-12T12:33:41.283Z,328
2017-09-12T12:35:42.731Z,360
2017-09-12T12:37:44.247Z,544
2017-09-12T12:39:45.724Z,724
2017-09-12T12:41:47.316Z,828
2017-09-12T12:43:48.895Z,652
2017-09-12T12:45:50.385Z,536
2017-09-12T12:47:51.830Z,480
2017-09-12T12:49:53.425Z,300
2017-09-12T12:51:54.849Z,156
2017-09-12T12:53:56.272Z,124
2017-09-12T12:55:57.696Z,144
2017-09-12T12:57:59.120Z,196
2017-09-12T13:00:00.542Z,336
2017-09-12T13:02:01.986Z,1768
2017-09-12T13:04:44.375Z,1832
2017-09-12T13:06:45.796Z,1960
2017-09-12T13:08:47.584Z,1936
2017-09-12T13:10:49.020Z,1944
2017-09-12T13:12:50.462Z,1960
2017-09-12T13:14:51.893Z,1936
2017-09-12T13:16:53.316Z,2048
2017-09-12T13:19:35.718Z,2044
2017-09-12T13:21:37.148Z,1964
2017-09-12T13:23:38.575Z,1992
2017-09-12T13:25:40.003Z,1956
2017-09-12T13:27:41.430Z,1920
2017-09-12T13:29:43.017Z,1280
2017-09-12T13:31:44.444Z,1856
2017-09-12T13:33:45.884Z,1856
2017-09-12T13:35:47.320Z,1876
2017-09-12T13:37:48.768Z,672
2017-09-12T13:39:50.283Z,1220
2017-09-12T13:41:51.801Z,2188
2017-09-12T13:43:53.248Z,1996
2017-09-12T13:45:54.747Z,2024
2017-09-12T13:47:56.238Z,648
2017-09-12T13:49:57.753Z,1932
2017-09-12T13:51:59.175Z,1880
2017-09-12T13:54:00.607Z,1788
2017-09-12T13:56:02.028Z,1776
2017-09-12T13:58:03.464Z,1728
2017-09-12T14:00:04.998Z,600
2017-09-12T14:02:06.549Z,728
2017-09-12T14:04:08.373Z,1864
2017-09-12T14:06:09.783Z,1312
2017-09-12T14:08:11.212Z,1332
2017-09-12T14:10:12.645Z,1872
2017-09-12T14:12:14.064Z,676
2017-09-12T14:14:15.494Z,516
2017-09-12T14:16:16.923Z,1560
2017-09-12T14:18:18.340Z,988
2017-09-12T14:20:19.786Z,1644
2017-09-12T14:22:21.212Z,1560
2017-09-12T14:24:22.636Z,1604
2017-09-12T14:26:24.060Z,1656
2017-09-12T14:28:25.498Z,1656
2017-09-12T14:30:26.933Z,1512
2017-09-12T14:32:28.349Z,1488
2017-09-12T14:34:29.792Z,1364
2017-09-12T14:36:31.270Z,1296
2017-09-12T14:39:13.964Z,1252
2017-09-12T14:41:15.391Z,1212
2017-09-12T14:43:16.816Z,1168
2017-09-12T14:45:18.241Z,1124
2017-09-12T14:47:19.671Z,1052
2017-09-12T14:49:21.098Z,1064
2017-09-12T14:51:22.524Z,908
2017-09-12T14:53:23.951Z,988
2017-09-12T14:56:06.348Z,948
2017-09-12T14:58:07.774Z,940
2017-09-12T15:00:09.198Z,892
2017-09-12T15:02:10.631Z,884
2017-09-12T15:04:12.066Z,864
2017-09-12T15:06:13.477Z,848
2017-09-12T15:08:14.907Z,820
2017-09-12T15:10:16.345Z,800
2017-09-12T15:12:17.827Z,792
2017-09-12T15:14:19.389Z,764
2017-09-12T15:16:20.817Z,352
2017-09-12T15:18:22.309Z,760
2017-09-12T15:20:23.835Z,776
2017-09-12T15:22:25.267Z,772
2017-09-12T15:24:26.764Z,756
2017-09-12T15:26:28.199Z,708
2017-09-12T15:28:29.702Z,404
2017-09-12T15:30:31.179Z,404
2017-09-12T15:32:32.779Z,704
2017-09-12T15:34:34.279Z,728
2017-09-12T15:36:35.802Z,692
2017-09-12T15:38:37.312Z,652
2017-09-12T15:40:38.864Z,616
2017-09-12T15:42:40.687Z,712
2017-09-12T15:44:42.159Z,712
2017-09-12T15:46:43.737Z,484
2017-09-12T15:48:45.238Z,772
2017-09-12T15:50:46.729Z,928
2017-09-12T15:52:48.310Z,860
2017-09-12T15:54:50.082Z,376
2017-09-12T15:56:51.620Z,420
2017-09-12T15:58:53.440Z,376
2017-09-12T16:00:55.112Z,356
2017-09-12T16:02:56.695Z,360
2017-09-12T16:04:58.310Z,488
2017-09-12T16:06:59.870Z,628
2017-09-12T16:09:01.220Z,592
2017-09-12T16:11:02.711Z,480
2017-09-12T16:13:04.246Z,560
2017-09-12T16:15:05.761Z,452
2017-09-12T16:17:07.327Z,504
2017-09-12T16:19:08.854Z,364
2017-09-12T16:21:10.343Z,336
2017-09-12T16:23:11.808Z,432
2017-09-12T16:25:13.283Z,420
2017-09-12T16:27:14.703Z,384
2017-09-12T16:29:16.129Z,384
2017-09-12T16:31:17.553Z,360
2017-09-12T16:33:19.011Z,288
2017-09-12T16:35:20.434Z,264
2017-09-12T16:37:21.859Z,256
2017-09-12T16:39:23.285Z,240
2017-09-12T16:41:24.702Z,248
2017-09-12T16:43:26.135Z,252
2017-09-12T16:45:27.560Z,228
2017-09-12T16:47:28.984Z,232
2017-09-12T16:49:30.408Z,256
2017-09-12T16:51:31.835Z,260
2017-09-12T16:53:33.259Z,272
2017-09-12T16:55:34.673Z,268
2017-09-12T16:57:36.103Z,256
2017-09-12T16:59:37.526Z,252
2017-09-12T17:01:38.944Z,236
2017-09-12T17:03:40.370Z,228
2017-09-12T17:05:41.807Z,196
2017-09-12T17:07:43.219Z,204
2017-09-12T17:09:44.732Z,180
2017-09-12T17:11:46.230Z,164
2017-09-12T17:13:47.712Z,152
2017-09-12T17:15:49.249Z,144
2017-09-12T17:17:50.787Z,136
2017-09-12T17:19:52.270Z,128
2017-09-12T17:21:53.732Z,116
2017-09-12T17:23:55.262Z,116
2017-09-12T17:25:56.763Z,104
2017-09-12T17:27:58.222Z,100
2017-09-12T17:29:59.734Z,92
2017-09-12T17:32:01.571Z,80
2017-09-12T17:34:03.281Z,68
2017-09-12T17:36:04.804Z,64
2017-09-12T17:38:06.420Z,56
2017-09-12T17:40:07.960Z,48
2017-09-12T17:42:09.451Z,44
2017-09-12T17:44:11.009Z,36
2017-09-12T17:46:12.523Z,32
2017-09-12T17:48:55.208Z,24
2017-09-12T17:50:56.631Z,16
2017-09-12T17:52:58.056Z,16
2017-09-12T17:54:59.699Z,12
2017-09-12T17:57:01.228Z,8
2017-09-12T17:59:02.713Z,8
2017-09-12T18:01:04.153Z,4
2017-09-12T18:03:05.574Z,4
2017-09-12T18:05:48.387Z,4
2017-09-12T18:07:49.639Z,4
2017-09-12T18:09:51.058Z,0
2017-09-12T18:11:52.942Z,4
2017-09-12T18:13:54.347Z,0
2017-09-12T18:15:55.762Z,0
2017-09-12T18:17:57.182Z,0
2017-09-12T18:19:58.601Z,0
2017-09-12T18:22:00.020Z,0
2017-09-12T18:24:01.447Z,0
2017-09-12T18:26:02.868Z,0
2017-09-12T18:28:04.297Z,0
2017-09-12T18:30:05.722Z,0
2017-09-12T18:32:07.131Z,0
2017-09-12T18:34:49.530Z,0
2017-09-12T18:36:50.951Z,0
2017-09-12T18:38:52.377Z,0
2017-09-12T18:40:54.267Z,0
2017-09-12T18:42:55.773Z,0
2017-09-12T18:44:57.362Z,0
2017-09-12T18:47:39.744Z,0
2017-09-12T18:49:41.161Z,0
2017-09-12T18:51:42.587Z,0
2017-09-12T18:53:44.010Z,0
2017-09-12T18:55:45.976Z,0
2017-09-12T18:57:47.519Z,0
2017-09-12T18:59:49.158Z,0
2017-09-12T19:01:50.590Z,0
2017-09-12T19:03:52.008Z,0
2017-09-12T19:05:53.426Z,0
2017-09-12T19:07:54.843Z,0
2017-09-12T19:09:56.280Z,0
2017-09-12T19:11:57.749Z,0
2017-09-12T19:13:59.169Z,0
2017-09-12T19:16:00.589Z,0
2017-09-12T19:18:02.006Z,0
2017-09-12T19:20:44.410Z,0
2017-09-12T19:22:45.829Z,0
2017-09-12T19:24:47.248Z,0
2017-09-12T19:26:48.673Z,0
2017-09-12T19:28:50.087Z,0
2017-09-12T19:30:51.504Z,0
2017-09-12T19:32:52.939Z,0
2017-09-12T19:34:54.338Z,0
2017-09-12T19:36:55.757Z,0
2017-09-12T19:38:57.182Z,0
2017-09-12T19:40:58.599Z,0
2017-09-12T19:43:00.616Z,0
2017-09-12T19:45:01.990Z,0
2017-09-12T19:47:03.460Z,0
2017-09-12T19:49:04.851Z,0
2017-09-12T19:51:06.268Z,0
2017-09-12T19:53:48.862Z,0
2017-09-12T19:55:50.546Z,0
2017-09-12T19:57:51.931Z,0
2017-09-12T19:59:53.350Z,0
2017-09-12T20:01:54.802Z,0
2017-09-12T20:03:56.223Z,0
2017-09-12T20:05:57.883Z,0
2017-09-12T20:08:40.315Z,0
2017-09-12T20:10:41.742Z,0
2017-09-12T20:12:43.160Z,0
2017-09-12T20:14:44.573Z,0
2017-09-12T20:16:45.996Z,0
2017-09-12T20:18:47.538Z,0
2017-09-12T20:20:48.968Z,0
2017-09-12T20:22:50.406Z,0
2017-09-12T20:25:33.610Z,0
2017-09-12T20:27:34.998Z,0
2017-09-12T20:29:36.413Z,0
2017-09-12T20:31:37.902Z,0
2017-09-12T20:33:39.313Z,0
2017-09-12T20:35:40.750Z,0
2017-09-12T20:37:42.167Z,0
2017-09-12T20:39:43.590Z,0
2017-09-12T20:41:45.007Z,0
2017-09-12T20:43:46.864Z,0
2017-09-12T20:45:48.512Z,0
2017-09-12T20:47:49.933Z,0
2017-09-12T20:49:51.387Z,0
2017-09-12T20:51:52.803Z,0
2017-09-12T20:53:54.227Z,0
2017-09-12T20:55:55.668Z,0
2017-09-12T20:57:57.100Z,0
2017-09-12T20:59:58.529Z,0
2017-09-12T21:01:59.950Z,0
2017-09-12T21:04:01.367Z,0
2017-09-12T21:06:02.806Z,0
2017-09-12T21:08:04.229Z,0
2017-09-12T21:10:05.645Z,0
2017-09-12T21:12:07.451Z,0
2017-09-12T21:14:08.942Z,0
2017-09-12T21:16:10.355Z,0
2017-09-12T21:18:11.830Z,0
2017-09-12T21:20:13.426Z,0
2017-09-12T21:22:15.003Z,0
2017-09-12T21:24:16.598Z,0
2017-09-12T21:26:18.163Z,0
2017-09-12T21:28:19.643Z,0
2017-09-12T21:30:21.163Z,0
2017-09-12T21:32:22.640Z,0
2017-09-12T21:34:24.088Z,0
2017-09-12T21:36:25.568Z,0
2017-09-12T21:38:26.981Z,0
2017-09-12T21:40:28.407Z,0
2017-09-12T21:42:29.835Z,0
2017-09-12T21:44:31.238Z,0
2017-09-12T21:46:32.666Z,0
2017-09-12T21:48:34.093Z,0
2017-09-12T21:50:35.524Z,0
2017-09-12T21:52:36.983Z,0
2017-09-12T21:54:38.465Z,0
2017-09-12T21:56:40.038Z,0
2017-09-12T21:58:41.562Z,0
2017-09-12T22:00:43.060Z,0
2017-09-12T22:03:25.450Z,0
2017-09-12T22:05:26.863Z,0
2017-09-12T22:07:28.283Z,0
2017-09-12T22:09:29.700Z,0
2017-09-12T22:11:31.115Z,0
2017-09-12T22:13:32.531Z,0
2017-09-12T22:15:33.946Z,0
2017-09-12T22:17:35.373Z,0
2017-09-12T22:19:36.786Z,0
2017-09-12T22:21:38.203Z,0
2017-09-12T22:23:39.623Z,0
2017-09-12T22:25:41.040Z,0
2017-09-12T22:27:43.004Z,0
2017-09-12T22:29:44.376Z,0
2017-09-12T22:31:45.791Z,0
2017-09-12T22:33:47.200Z,0
2017-09-12T22:35:48.616Z,0
2017-09-12T22:37:50.029Z,0
2017-09-12T22:39:51.450Z,0
2017-09-12T22:41:52.885Z,0
2017-09-12T22:43:54.359Z,0
2017-09-12T22:45:55.914Z,0
2017-09-12T22:47:57.408Z,0
2017-09-12T22:50:39.798Z,0
2017-09-12T22:52:41.768Z,0
2017-09-12T22:54:43.182Z,0
2017-09-12T22:56:44.596Z,0
2017-09-12T22:58:46.036Z,0
2017-09-12T23:00:47.442Z,0
2017-09-12T23:02:48.860Z,0
2017-09-12T23:04:50.272Z,0
2017-09-12T23:06:51.683Z,0
2017-09-12T23:08:53.127Z,0
2017-09-12T23:10:54.553Z,0
2017-09-12T23:12:55.973Z,0
2017-09-12T23:14:57.383Z,0
2017-09-12T23:16:58.802Z,0
2017-09-12T23:19:00.224Z,0
2017-09-12T23:21:01.635Z,0
2017-09-12T23:23:03.041Z,0
2017-09-12T23:25:04.516Z,0
2017-09-12T23:27:05.926Z,0
2017-09-12T23:29:07.341Z,0
2017-09-12T23:31:08.757Z,0
2017-09-12T23:33:10.179Z,0
2017-09-12T23:35:11.738Z,0
2017-09-12T23:37:54.112Z,0
2017-09-12T23:39:55.529Z,0
2017-09-12T23:41:56.945Z,0
2017-09-12T23:43:58.365Z,0
2017-09-12T23:46:00.217Z,0
2017-09-12T23:48:01.880Z,0
2017-09-12T23:50:03.297Z,0
2017-09-12T23:52:04.712Z,0
2017-09-12T23:54:47.131Z,0
2017-09-12T23:56:48.532Z,0
2017-09-12T23:58:49.947Z,0
